This is the latest recevied weather packets stored in our database for station/object PY3MO-11. If no packets are shown the sender has not sent any weather packets the latest 1 day(s).
| Time | Temp. | Humidity | Pressure | Rain* | Wind** | Luminosity | Snow |
|---|---|---|---|---|---|---|---|
| 1778079538 | 26.11° C | 60% | 1019.6 hPa | 0 mm | - | - | - |
| 1778079238 | 26.11° C | 59% | 1019.7 hPa | 0 mm | - | - | - |
| 1778078937 | 26.67° C | 60% | 1019.6 hPa | 0 mm | - | - | - |
| 1778078337 | 27.22° C | 58% | 1019.7 hPa | 0 mm | - | - | - |
| 1778077739 | 27.22° C | 60% | 1020.1 hPa | 0 mm | - | - | - |
| 1778076238 | 27.22° C | 60% | 1020.2 hPa | 0 mm | - | - | - |
| 1778075938 | 26.67° C | 61% | 1020.4 hPa | 0 mm | - | - | - |
| 1778075638 | 26.67° C | 61% | 1020.3 hPa | 0 mm | - | - | - |
| 1778074737 | 26.11° C | 61% | 1020.5 hPa | 0 mm | - | - | - |
| 1778074437 | 26.11° C | 61% | 1020.5 hPa | 0 mm | - | - | - |
| 1778074139 | 26.11° C | 61% | 1020.5 hPa | 0 mm | - | - | - |
| 1778073839 | 26.11° C | 62% | 1020.6 hPa | 0 mm | - | - | - |
| 1778072639 | 25.56° C | 62% | 1020.7 hPa | 0 mm | - | - | - |
| 1778072338 | 25.56° C | 63% | 1020.7 hPa | 0 mm | - | - | - |
| 1778072038 | 25° C | 64% | 1020.8 hPa | 0 mm | - | - | - |
| 1778070539 | 23.89° C | 66% | 1021 hPa | 0 mm | - | - | - |
| 1778070239 | 23.89° C | 67% | 1020.9 hPa | 0 mm | - | - | - |
| 1778069939 | 23.33° C | 69% | 1020.7 hPa | 0 mm | - | - | - |
| 1778068138 | 21.11° C | 75% | 1020.9 hPa | 0 mm | - | - | - |
| 1778066639 | 20° C | 79% | 1020.6 hPa | 0 mm | - | - | - |
| 1778065438 | 19.44° C | 81% | 1020.6 hPa | 0 mm | - | - | - |
| 1778065138 | 19.44° C | 82% | 1020.5 hPa | 0 mm | - | - | - |
| 1778064838 | 18.89° C | 82% | 1020.4 hPa | 0 mm | - | - | - |
* Rain latest hour (hover to see other rain measurements)
** Current wind speed in m/s (hover to see current wind gust speed)